createdAt,value
2023-04-10T00:00:45.905Z,13.52
2023-04-10T00:03:18.126Z,13.23
2023-04-10T00:05:48.333Z,14.20
2023-04-10T00:08:20.827Z,13.05
2023-04-10T00:10:50.854Z,13.27
2023-04-10T00:13:20.840Z,13.73
2023-04-10T00:15:51.032Z,12.35
2023-04-10T00:18:20.951Z,14.50
2023-04-10T00:20:50.966Z,13.15
2023-04-10T00:23:24.437Z,13.27
2023-04-10T00:25:54.465Z,14.77
2023-04-10T00:28:24.391Z,13.32
2023-04-10T00:30:54.258Z,14.60
2023-04-10T00:33:24.151Z,13.85
2023-04-10T00:35:54.068Z,14.90
2023-04-10T00:38:26.572Z,14.13
2023-04-10T00:40:56.433Z,13.13
2023-04-10T00:43:26.342Z,13.80
2023-04-10T00:45:56.396Z,14.50
2023-04-10T00:48:26.402Z,17.20
2023-04-10T00:50:56.358Z,14.63
2023-04-10T00:53:29.053Z,15.10
2023-04-10T00:55:59.702Z,14.30
2023-04-10T00:58:29.585Z,14.38
2023-04-10T01:00:59.603Z,15.68
2023-04-10T01:03:29.688Z,12.18
2023-04-10T01:06:08.559Z,14.80
2023-04-10T01:08:49.769Z,14.75
2023-04-10T01:11:30.939Z,14.57
2023-04-10T01:14:08.720Z,14.93
2023-04-10T01:16:43.830Z,16.65
2023-04-10T01:19:28.620Z,14.85
2023-04-10T01:24:43.739Z,16.40
2023-04-10T01:29:52.021Z,14.77
2023-04-10T01:32:24.877Z,14.70
2023-04-10T01:34:58.275Z,16.08
2023-04-10T01:37:33.628Z,15.73
2023-04-10T01:40:07.176Z,13.00
2023-04-10T01:42:43.272Z,15.73
2023-04-10T01:45:21.468Z,14.60
2023-04-10T01:47:51.721Z,17.83
2023-04-10T01:50:24.587Z,15.38
2023-04-10T01:52:55.317Z,18.42
2023-04-10T01:55:27.094Z,16.27
2023-04-10T01:57:57.733Z,14.88
2023-04-10T02:00:30.676Z,16.90
2023-04-10T02:03:00.894Z,18.00
2023-04-10T02:05:37.990Z,19.13
2023-04-10T02:08:15.197Z,17.02
2023-04-10T02:10:52.326Z,15.70
2023-04-10T02:13:24.841Z,17.88
2023-04-10T02:16:00.976Z,15.27
2023-04-10T02:18:33.913Z,16.10
2023-04-10T02:21:04.766Z,15.85
2023-04-10T02:23:34.639Z,16.88
2023-04-10T02:26:09.736Z,17.25
2023-04-10T02:28:41.909Z,15.98
2023-04-10T02:31:14.380Z,14.95
2023-04-10T02:33:44.317Z,17.52
2023-04-10T02:36:14.271Z,16.00
2023-04-10T02:38:44.245Z,15.82
2023-04-10T02:41:14.075Z,15.00
2023-04-10T02:43:43.950Z,17.23
2023-04-10T02:46:16.441Z,15.48
2023-04-10T02:48:46.530Z,16.58
2023-04-10T02:51:16.512Z,16.52
2023-04-10T02:53:47.002Z,14.55
2023-04-10T02:56:16.941Z,15.40
2023-04-10T02:58:47.867Z,16.17
2023-04-10T03:01:20.814Z,18.20
2023-04-10T03:03:50.824Z,16.48
2023-04-10T03:06:21.075Z,16.55
2023-04-10T03:08:51.671Z,15.18
2023-04-10T03:11:21.541Z,16.98
2023-04-10T03:13:51.894Z,15.15
2023-04-10T03:16:24.611Z,16.40
2023-04-10T03:18:55.178Z,16.35
2023-04-10T03:21:25.150Z,16.92
2023-04-10T03:23:55.176Z,17.02
2023-04-10T03:26:25.356Z,15.85
2023-04-10T03:28:55.203Z,16.20
2023-04-10T03:31:27.791Z,14.98
2023-04-10T03:33:58.231Z,14.80
2023-04-10T03:36:28.532Z,12.90
2023-04-10T03:38:58.404Z,13.85
2023-04-10T03:41:28.249Z,12.02
2023-04-10T03:43:58.081Z,13.38
2023-04-10T03:46:30.551Z,13.27
2023-04-10T03:49:00.564Z,13.98
2023-04-10T03:51:31.734Z,15.00
2023-04-10T03:54:01.678Z,15.15
2023-04-10T03:56:31.550Z,14.25
2023-04-10T03:59:01.437Z,13.13
2023-04-10T04:01:34.025Z,14.85
2023-04-10T04:04:04.085Z,13.38
2023-04-10T04:06:34.194Z,13.13
2023-04-10T04:09:04.068Z,14.95
2023-04-10T04:11:34.122Z,13.57
2023-04-10T04:14:03.998Z,15.13
2023-04-10T04:16:36.666Z,13.95
2023-04-10T04:19:06.566Z,13.75
2023-04-10T04:21:36.484Z,14.07
2023-04-10T04:24:06.481Z,14.63
2023-04-10T04:26:36.700Z,14.93
2023-04-10T04:29:06.526Z,15.13
2023-04-10T04:31:39.028Z,13.02
2023-04-10T04:34:08.935Z,13.18
2023-04-10T04:36:38.834Z,14.70
2023-04-10T04:39:08.753Z,12.45
2023-04-10T04:41:38.690Z,11.88
2023-04-10T04:44:08.852Z,13.23
2023-04-10T04:46:44.407Z,13.15
2023-04-10T04:49:14.703Z,13.73
2023-04-10T04:51:44.686Z,13.20
2023-04-10T04:54:14.529Z,12.40
2023-04-10T04:56:44.418Z,13.05
2023-04-10T04:59:14.297Z,13.15
2023-04-10T05:01:46.767Z,13.20
2023-04-10T05:04:16.869Z,13.93
2023-04-10T05:06:46.978Z,11.95
2023-04-10T05:09:16.807Z,12.40
2023-04-10T05:11:46.674Z,11.98
2023-04-10T05:14:16.594Z,12.13
2023-04-10T05:16:49.078Z,11.85
2023-04-10T05:19:19.011Z,13.20
2023-04-10T05:21:48.920Z,11.05
2023-04-10T05:24:18.788Z,12.77
2023-04-10T05:26:49.089Z,12.25
2023-04-10T05:29:18.948Z,12.43
2023-04-10T05:31:53.444Z,11.35
2023-04-10T05:36:53.109Z,10.73
2023-04-10T05:39:22.934Z,12.25
2023-04-10T05:41:52.773Z,12.82
2023-04-10T05:44:22.644Z,11.73
2023-04-10T05:46:55.139Z,12.88
2023-04-10T05:49:25.258Z,12.48
2023-04-10T05:51:55.167Z,12.70
2023-04-10T05:54:25.038Z,13.68
2023-04-10T05:56:54.897Z,13.68
2023-04-10T05:59:24.757Z,11.57
2023-04-10T06:01:57.238Z,11.77
2023-04-10T06:04:27.399Z,12.27
2023-04-10T06:06:58.292Z,12.57
2023-04-10T06:09:28.375Z,11.45
2023-04-10T06:11:58.318Z,12.52
2023-04-10T06:14:28.158Z,11.15
2023-04-10T06:17:00.601Z,12.35
2023-04-10T06:19:30.470Z,13.02
2023-04-10T06:22:00.634Z,12.90
2023-04-10T06:24:31.016Z,11.93
2023-04-10T06:27:01.049Z,11.80
2023-04-10T06:29:31.060Z,12.80
2023-04-10T06:32:03.514Z,11.30
2023-04-10T06:34:33.398Z,11.93
2023-04-10T06:37:03.377Z,10.90
2023-04-10T06:39:33.194Z,11.15
2023-04-10T06:42:03.707Z,11.82
2023-04-10T06:44:33.900Z,11.75
2023-04-10T06:47:06.959Z,11.95
2023-04-10T06:49:37.029Z,12.40
2023-04-10T06:52:07.645Z,11.55
2023-04-10T06:54:37.521Z,11.68
2023-04-10T06:57:07.437Z,11.30
2023-04-10T06:59:37.301Z,13.27
2023-04-10T07:02:10.522Z,11.05
2023-04-10T07:04:40.604Z,10.73
2023-04-10T07:07:13.614Z,11.00
2023-04-10T07:09:43.959Z,9.70
2023-04-10T07:12:13.935Z,9.93
2023-04-10T07:14:44.340Z,10.10
2023-04-10T07:17:16.837Z,9.32
2023-04-10T07:19:46.723Z,8.77
2023-04-10T07:22:16.637Z,11.45
2023-04-10T07:24:46.969Z,8.82
2023-04-10T07:27:20.870Z,10.10
2023-04-10T07:29:50.830Z,9.90
2023-04-10T07:32:23.555Z,8.90
2023-04-10T07:34:53.817Z,8.32
2023-04-10T07:37:23.650Z,8.57
2023-04-10T07:39:53.662Z,8.80
2023-04-10T07:42:23.498Z,8.38
2023-04-10T07:44:53.363Z,8.23
2023-04-10T07:47:25.877Z,8.98
2023-04-10T07:49:56.600Z,8.68
2023-04-10T07:52:26.494Z,8.90
2023-04-10T07:54:56.378Z,7.97
2023-04-10T07:57:26.477Z,6.45
2023-04-10T07:59:56.396Z,8.40
2023-04-10T08:02:29.057Z,7.55
2023-04-10T08:04:59.437Z,7.45
2023-04-10T08:07:29.398Z,6.28
2023-04-10T08:09:59.309Z,7.13
2023-04-10T08:12:29.109Z,7.03
2023-04-10T08:15:00.646Z,7.38
2023-04-10T08:17:33.128Z,10.13
2023-04-10T08:20:03.131Z,7.15
2023-04-10T08:22:34.023Z,6.78
2023-04-10T08:25:03.912Z,8.70
2023-04-10T08:27:33.798Z,6.50
2023-04-10T08:30:03.641Z,5.90
2023-04-10T08:32:36.500Z,6.32
2023-04-10T08:35:06.949Z,6.75
2023-04-10T08:37:40.267Z,7.88
2023-04-10T08:40:12.457Z,6.60
2023-04-10T08:42:42.309Z,6.85
2023-04-10T08:45:13.546Z,6.70
2023-04-10T08:47:48.163Z,6.63
2023-04-10T08:50:20.432Z,6.35
2023-04-10T08:52:55.689Z,6.43
2023-04-10T08:55:26.551Z,6.50
2023-04-10T08:58:01.240Z,8.98
2023-04-10T09:00:34.585Z,6.50
2023-04-10T09:03:08.618Z,6.57
2023-04-10T09:05:38.917Z,6.35
2023-04-10T09:08:11.189Z,6.78
2023-04-10T09:10:41.202Z,7.22
2023-04-10T09:13:11.191Z,5.63
2023-04-10T09:16:00.415Z,6.40
2023-04-10T09:18:49.988Z,7.35
2023-04-10T09:21:21.657Z,5.95
2023-04-10T09:23:52.376Z,5.07
2023-04-10T09:26:30.136Z,6.22
2023-04-10T09:29:04.577Z,5.35
2023-04-10T09:31:36.496Z,4.82
2023-04-10T09:34:16.964Z,4.18
2023-04-10T09:36:55.775Z,4.53
2023-04-10T09:39:36.139Z,3.92
2023-04-10T09:42:06.233Z,4.95
2023-04-10T09:44:37.504Z,4.65
2023-04-10T09:47:20.299Z,4.15
2023-04-10T09:49:55.046Z,4.65
2023-04-10T09:52:27.475Z,4.32
2023-04-10T09:54:59.043Z,4.95
2023-04-10T09:57:30.394Z,5.63
2023-04-10T10:00:02.170Z,3.90
2023-04-10T10:02:33.402Z,4.50
2023-04-10T10:05:07.889Z,3.65
2023-04-10T10:07:38.171Z,3.90
2023-04-10T10:10:10.113Z,3.38
2023-04-10T10:12:47.238Z,3.42
2023-04-10T10:15:23.622Z,4.38
2023-04-10T10:18:03.516Z,4.10
2023-04-10T10:20:40.095Z,3.63
2023-04-10T10:23:10.686Z,3.70
2023-04-10T10:25:41.609Z,3.60
2023-04-10T10:28:16.770Z,3.22
2023-04-10T10:30:47.369Z,2.80
2023-04-10T10:33:18.055Z,3.10
2023-04-10T10:35:51.197Z,3.42
2023-04-10T10:38:21.877Z,3.75
2023-04-10T10:41:00.635Z,2.60
2023-04-10T10:43:41.077Z,3.60
2023-04-10T10:46:15.755Z,3.55
2023-04-10T10:48:58.754Z,3.00
2023-04-10T10:51:46.679Z,4.03
2023-04-10T10:54:31.431Z,2.47
2023-04-10T10:57:01.470Z,3.22
2023-04-10T10:59:59.468Z,3.70
2023-04-10T11:02:29.414Z,3.00
2023-04-10T11:04:59.342Z,2.97
2023-04-10T11:08:09.752Z,2.97
2023-04-10T11:11:05.321Z,2.72
2023-04-10T11:13:36.004Z,2.63
2023-04-10T11:16:07.709Z,3.90
2023-04-10T11:19:12.983Z,2.05
2023-04-10T11:22:03.687Z,2.67
2023-04-10T11:25:00.326Z,2.42
2023-04-10T11:27:49.841Z,1.92
2023-04-10T11:30:43.898Z,2.20
2023-04-10T11:33:21.895Z,1.87
2023-04-10T11:35:51.839Z,2.60
2023-04-10T11:38:21.812Z,3.28
2023-04-10T11:41:04.060Z,2.67
2023-04-10T11:43:35.278Z,2.58
2023-04-10T11:46:07.570Z,4.20
2023-04-10T11:48:38.006Z,2.72
2023-04-10T11:51:12.694Z,2.60
2023-04-10T11:53:43.601Z,2.67
2023-04-10T11:56:25.112Z,2.42
2023-04-10T11:58:55.927Z,9.15
2023-04-10T12:01:26.478Z,2.00
2023-04-10T12:03:56.744Z,2.08
2023-04-10T12:06:27.757Z,3.88
2023-04-10T12:08:58.061Z,1.98
2023-04-10T12:11:30.735Z,3.05
2023-04-10T12:14:00.973Z,2.33
2023-04-10T12:16:31.018Z,1.63
2023-04-10T12:19:01.110Z,2.30
2023-04-10T12:21:31.288Z,1.33
2023-04-10T12:24:01.168Z,1.80
2023-04-10T12:26:33.695Z,1.80
2023-04-10T12:29:03.655Z,1.80
2023-04-10T12:31:35.080Z,1.58
2023-04-10T12:34:08.521Z,1.55
2023-04-10T12:36:39.696Z,1.63
2023-04-10T12:39:25.589Z,1.42
2023-04-10T12:42:14.187Z,1.27
2023-04-10T12:44:56.985Z,1.42
2023-04-10T12:47:27.736Z,1.27
2023-04-10T12:50:11.815Z,2.33
2023-04-10T12:52:43.638Z,1.30
2023-04-10T12:55:15.535Z,1.65
2023-04-10T12:57:49.360Z,1.23
2023-04-10T13:00:21.184Z,1.38
2023-04-10T13:02:52.120Z,1.00
2023-04-10T13:05:22.191Z,0.80
2023-04-10T13:07:53.038Z,1.02
2023-04-10T13:10:24.589Z,1.17
2023-04-10T13:12:57.051Z,0.93
2023-04-10T13:15:27.559Z,1.30
2023-04-10T13:17:57.439Z,0.90
2023-04-10T13:20:27.424Z,2.95
2023-04-10T13:22:57.299Z,1.40
2023-04-10T13:25:27.819Z,1.20
2023-04-10T13:28:00.511Z,1.13
2023-04-10T13:30:31.369Z,1.25
2023-04-10T13:33:01.270Z,1.00
2023-04-10T13:35:31.396Z,1.20
2023-04-10T13:38:01.873Z,1.20
2023-04-10T13:40:31.854Z,1.25
2023-04-10T13:43:06.451Z,1.98
2023-04-10T13:45:36.529Z,1.67
2023-04-10T13:48:07.546Z,1.40
2023-04-10T13:50:37.547Z,1.30
2023-04-10T13:53:09.196Z,1.45
2023-04-10T13:55:43.761Z,1.38
2023-04-10T13:58:16.563Z,2.47
2023-04-10T14:00:46.931Z,1.85
2023-04-10T14:03:17.013Z,2.50
2023-04-10T14:05:48.215Z,1.70
2023-04-10T14:08:18.094Z,2.40
2023-04-10T14:10:50.833Z,3.00
2023-04-10T14:13:23.306Z,1.35
2023-04-10T14:15:53.952Z,1.55
2023-04-10T14:18:23.808Z,2.47
2023-04-10T14:20:53.609Z,1.45
2023-04-10T14:23:23.490Z,2.55
2023-04-10T14:25:54.079Z,1.95
2023-04-10T14:28:26.524Z,1.63
2023-04-10T14:30:56.445Z,1.27
2023-04-10T14:33:26.314Z,1.75
2023-04-10T14:35:56.734Z,1.85
2023-04-10T14:38:26.635Z,1.40
2023-04-10T14:40:56.535Z,1.95
2023-04-10T14:43:29.012Z,1.80
2023-04-10T14:45:58.882Z,1.65
2023-04-10T14:48:28.937Z,2.53
2023-04-10T14:50:59.355Z,2.55
2023-04-10T14:53:29.261Z,2.70
2023-04-10T14:55:59.109Z,2.05
2023-04-10T14:58:31.688Z,1.83
2023-04-10T15:01:01.612Z,3.70
2023-04-10T15:03:31.593Z,1.45
2023-04-10T15:06:04.715Z,1.48
2023-04-10T15:08:34.743Z,2.53
2023-04-10T15:11:05.300Z,1.55
2023-04-10T15:13:37.934Z,1.90
2023-04-10T15:16:08.814Z,1.40
2023-04-10T15:18:38.695Z,3.08
2023-04-10T15:21:09.045Z,1.63
2023-04-10T15:23:38.895Z,1.60
2023-04-10T15:26:13.979Z,1.73
2023-04-10T15:28:46.552Z,1.70
2023-04-10T15:31:16.612Z,2.25
2023-04-10T15:33:46.694Z,1.60
2023-04-10T15:36:16.617Z,1.95
2023-04-10T15:38:48.128Z,2.47
2023-04-10T15:41:19.361Z,2.53
2023-04-10T15:43:51.822Z,1.38
2023-04-10T15:46:21.868Z,2.13
2023-04-10T15:48:51.767Z,1.85
2023-04-10T15:51:21.622Z,1.80
2023-04-10T15:53:51.465Z,2.13
2023-04-10T15:56:21.317Z,4.25
2023-04-10T15:58:53.813Z,3.67
2023-04-10T16:01:23.709Z,3.90
2023-04-10T16:03:54.111Z,3.42
2023-04-10T16:06:25.965Z,2.85
2023-04-10T16:08:55.955Z,2.78
2023-04-10T16:11:25.854Z,2.35
2023-04-10T16:13:58.481Z,2.17
2023-04-10T16:16:29.153Z,2.45
2023-04-10T16:19:01.664Z,3.38
2023-04-10T16:21:31.850Z,2.97
2023-04-10T16:24:01.809Z,4.15
2023-04-10T16:26:31.778Z,6.57
2023-04-10T16:29:04.225Z,3.17
2023-04-10T16:31:34.174Z,2.35
2023-04-10T16:34:04.023Z,2.22
2023-04-10T16:36:34.192Z,2.42
2023-04-10T16:39:04.135Z,1.80
2023-04-10T16:41:34.029Z,2.28
2023-04-10T16:44:06.551Z,1.83
2023-04-10T16:46:36.534Z,3.60
2023-04-10T16:49:07.139Z,2.72
2023-04-10T16:51:37.112Z,4.55
2023-04-10T16:54:07.188Z,3.20
2023-04-10T16:56:37.113Z,3.50
2023-04-10T16:59:09.724Z,3.00
2023-04-10T17:01:39.994Z,3.75
2023-04-10T17:04:10.696Z,3.83
2023-04-10T17:06:40.929Z,3.33
2023-04-10T17:09:10.835Z,2.05
2023-04-10T17:11:40.842Z,3.25
2023-04-10T17:14:13.514Z,3.10
2023-04-10T17:16:43.458Z,3.10
2023-04-10T17:19:13.459Z,3.00
2023-04-10T17:21:43.367Z,4.20
2023-04-10T17:24:13.247Z,5.55
2023-04-10T17:26:43.430Z,5.72
2023-04-10T17:29:15.910Z,5.13
2023-04-10T17:31:45.844Z,8.68
2023-04-10T17:34:15.961Z,12.38
2023-04-10T17:36:45.853Z,8.05
2023-04-10T17:39:15.735Z,5.55
2023-04-10T17:41:45.645Z,5.18
2023-04-10T17:44:18.131Z,5.95
2023-04-10T17:46:48.098Z,5.15
2023-04-10T17:49:18.260Z,3.97
2023-04-10T17:51:48.306Z,2.90
2023-04-10T17:54:18.582Z,4.40
2023-04-10T17:56:48.436Z,5.50
2023-04-10T17:59:20.957Z,3.20
2023-04-10T18:01:50.977Z,4.82
2023-04-10T18:04:21.073Z,7.00
2023-04-10T18:06:51.275Z,9.10
2023-04-10T18:09:21.363Z,8.40
2023-04-10T18:11:52.399Z,8.63
2023-04-10T18:14:25.032Z,7.80
2023-04-10T18:16:54.960Z,8.05
2023-04-10T18:19:24.850Z,9.32
2023-04-10T18:21:54.713Z,9.52
2023-04-10T18:24:24.597Z,7.85
2023-04-10T18:26:54.419Z,7.40
2023-04-10T18:29:27.296Z,6.30
2023-04-10T18:31:57.219Z,4.65
2023-04-10T18:34:27.078Z,6.72
2023-04-10T18:36:57.017Z,6.85
2023-04-10T18:39:27.036Z,4.93
2023-04-10T18:41:57.379Z,3.95
2023-04-10T18:44:30.371Z,3.78
2023-04-10T18:47:04.219Z,4.85
2023-04-10T18:49:34.462Z,3.17
2023-04-10T18:52:04.321Z,2.72
2023-04-10T18:54:34.297Z,3.47
2023-04-10T18:57:04.423Z,2.85
2023-04-10T18:59:36.954Z,4.05
2023-04-10T19:02:08.884Z,2.95
2023-04-10T19:04:39.015Z,3.55
2023-04-10T19:07:09.346Z,3.30
2023-04-10T19:09:39.208Z,4.88
2023-04-10T19:12:09.143Z,2.40
2023-04-10T19:14:41.597Z,2.53
2023-04-10T19:17:11.500Z,2.28
2023-04-10T19:19:41.903Z,2.28
2023-04-10T19:22:11.748Z,3.85
2023-04-10T19:24:41.629Z,2.63
2023-04-10T19:27:11.489Z,2.30
2023-04-10T19:29:44.079Z,2.55
2023-04-10T19:32:13.968Z,2.55
2023-04-10T19:34:43.858Z,3.65
2023-04-10T19:37:13.690Z,3.20
2023-04-10T19:39:43.533Z,2.33
2023-04-10T19:42:13.449Z,2.97
2023-04-10T19:44:45.926Z,2.80
2023-04-10T19:47:18.017Z,2.28
2023-04-10T19:49:48.124Z,2.28
2023-04-10T19:52:18.053Z,2.38
2023-04-10T19:54:47.861Z,2.40
2023-04-10T19:57:17.775Z,2.33
2023-04-10T19:59:50.293Z,4.15
2023-04-10T20:02:21.400Z,2.95
2023-04-10T20:04:51.483Z,2.78
2023-04-10T20:07:21.423Z,3.08
2023-04-10T20:09:51.306Z,2.45
2023-04-10T20:12:21.177Z,3.03
2023-04-10T20:14:53.590Z,2.33
2023-04-10T20:17:23.544Z,3.97
2023-04-10T20:19:53.483Z,2.08
2023-04-10T20:22:23.362Z,4.78
2023-04-10T20:24:53.182Z,5.38
2023-04-10T20:27:23.285Z,2.70
2023-04-10T20:29:55.752Z,2.03
2023-04-10T20:32:25.802Z,2.53
2023-04-10T20:34:55.765Z,3.65
2023-04-10T20:37:25.657Z,2.78
2023-04-10T20:39:55.597Z,2.60
2023-04-10T20:42:25.517Z,3.30
2023-04-10T20:44:58.147Z,3.15
2023-04-10T20:47:28.056Z,2.88
2023-04-10T20:49:57.888Z,2.47
2023-04-10T20:52:27.711Z,3.35
2023-04-10T20:54:57.526Z,2.20
2023-04-10T20:57:27.432Z,2.50
2023-04-10T20:59:59.951Z,4.60
2023-04-10T21:02:30.403Z,3.80
2023-04-10T21:05:00.481Z,3.75
2023-04-10T21:07:30.780Z,2.50
2023-04-10T21:10:00.737Z,2.20
2023-04-10T21:12:30.911Z,3.33
2023-04-10T21:15:03.377Z,2.22
2023-04-10T21:17:33.338Z,2.13
2023-04-10T21:20:04.313Z,2.97
2023-04-10T21:22:34.221Z,2.47
2023-04-10T21:25:04.113Z,2.20
2023-04-10T21:27:33.960Z,2.92
2023-04-10T21:30:06.774Z,4.25
2023-04-10T21:32:36.659Z,2.10
2023-04-10T21:35:06.878Z,2.88
2023-04-10T21:37:36.792Z,3.78
2023-04-10T21:40:07.541Z,2.42
2023-04-10T21:42:39.691Z,2.67
2023-04-10T21:45:15.735Z,3.08
2023-04-10T21:47:45.750Z,2.95
2023-04-10T21:50:15.643Z,2.85
2023-04-10T21:52:45.561Z,2.20
2023-04-10T21:55:15.514Z,2.50
2023-04-10T21:57:45.342Z,1.98
2023-04-10T22:00:21.191Z,2.50
2023-04-10T22:02:53.211Z,2.95
2023-04-10T22:05:24.483Z,2.58
2023-04-10T22:07:55.319Z,2.30
2023-04-10T22:10:25.162Z,2.40
2023-04-10T22:12:55.017Z,4.18
2023-04-10T22:15:27.462Z,3.25
2023-04-10T22:17:57.321Z,2.85
2023-04-10T22:20:27.242Z,2.22
2023-04-10T22:22:57.134Z,1.85
2023-04-10T22:25:27.865Z,3.10
2023-04-10T22:27:57.815Z,2.25
2023-04-10T22:30:30.282Z,3.50
2023-04-10T22:33:00.547Z,2.55
2023-04-10T22:35:30.628Z,2.13
2023-04-10T22:38:00.518Z,2.08
2023-04-10T22:40:30.405Z,2.35
2023-04-10T22:43:00.207Z,2.63
2023-04-10T22:45:32.644Z,2.88
2023-04-10T22:48:02.540Z,5.35
2023-04-10T22:50:33.888Z,2.80
2023-04-10T22:53:03.726Z,2.20
2023-04-10T22:55:33.584Z,3.95
2023-04-10T22:58:03.749Z,4.13
2023-04-10T23:00:36.559Z,3.47
2023-04-10T23:03:06.598Z,5.18
2023-04-10T23:05:36.696Z,3.65
2023-04-10T23:08:06.550Z,2.63
2023-04-10T23:10:36.393Z,3.22
2023-04-10T23:13:06.303Z,4.53
2023-04-10T23:15:38.902Z,2.55
2023-04-10T23:18:09.009Z,3.90
2023-04-10T23:20:38.921Z,2.50
2023-04-10T23:23:08.761Z,3.70
2023-04-10T23:25:39.433Z,2.00
2023-04-10T23:28:09.281Z,3.17
2023-04-10T23:30:42.748Z,3.42
2023-04-10T23:33:12.670Z,5.03
2023-04-10T23:35:42.503Z,3.45
2023-04-10T23:38:12.357Z,4.22
2023-04-10T23:40:42.169Z,4.20
2023-04-10T23:43:12.058Z,3.53
2023-04-10T23:45:44.813Z,2.70
2023-04-10T23:48:14.698Z,2.95
2023-04-10T23:50:44.494Z,4.65
2023-04-10T23:53:14.855Z,1.65
2023-04-10T23:55:45.079Z,2.55
2023-04-10T23:58:14.884Z,2.58
